Time;durP1;ratioP1;P1;durP2;ratioP2;P2;SDS_P1;SDS_P2;PMS_P1;PMS_P2;Temp;Humidity;BMP_temperature;BMP_pressure;BME280_temperature;BME280_humidity;BME280_pressure;Samples;Min_cycle;Max_cycle;Signal;HPM_P1;HPM_P2
2024/02/24 00:01:03;;;;;;;1.10;1.00;;;7.20;89.80;;;;;;5038715;28;20053;-66
2024/02/24 00:03:29;;;;;;;1.83;0.95;;;7.20;90.00;;;;;;5040248;28;20106;-66
2024/02/24 00:05:54;;;;;;;0.93;0.90;;;7.20;90.00;;;;;;5040931;28;20052;-66
2024/02/24 00:08:20;;;;;;;0.93;0.93;;;7.20;90.00;;;;;;5041234;28;20033;-66
2024/02/24 00:10:46;;;;;;;0.82;0.82;;;7.20;90.00;;;;;;5039892;28;20041;-67
2024/02/24 00:13:12;;;;;;;0.82;0.82;;;7.20;90.00;;;;;;5039551;28;20075;-67
2024/02/24 00:15:37;;;;;;;0.80;0.80;;;7.10;90.10;;;;;;5041152;28;20044;-66
2024/02/24 00:18:04;;;;;;;0.90;0.90;;;7.10;90.20;;;;;;5037332;28;20033;-66
2024/02/24 00:20:29;;;;;;;1.00;0.95;;;7.10;90.20;;;;;;5037826;28;20032;-67
2024/02/24 00:22:55;;;;;;;1.33;1.10;;;7.10;90.20;;;;;;5039050;28;20158;-67
2024/02/24 00:25:20;;;;;;;2.47;1.20;;;7.00;90.20;;;;;;5042099;28;20016;-65
2024/02/24 00:27:46;;;;;;;2.15;1.42;;;7.00;90.20;;;;;;5039536;28;20033;-66
2024/02/24 00:30:13;;;;;;;1.30;1.20;;;6.90;90.20;;;;;;5037377;28;20017;-66
2024/02/24 00:32:38;;;;;;;1.27;1.17;;;6.90;90.30;;;;;;5039486;28;20122;-65
2024/02/24 00:35:04;;;;;;;1.20;1.10;;;6.90;90.30;;;;;;5038651;28;20115;-65
2024/02/24 00:37:30;;;;;;;1.80;1.20;;;6.90;90.30;;;;;;5037060;28;20033;-66
2024/02/24 00:39:56;;;;;;;1.83;1.30;;;6.90;90.30;;;;;;5036835;28;20031;-66
2024/02/24 00:42:21;;;;;;;1.23;1.13;;;6.90;90.40;;;;;;5039770;28;20104;-65
2024/02/24 00:44:47;;;;;;;1.38;1.20;;;6.90;90.40;;;;;;5038825;28;20376;-64
2024/02/24 00:47:12;;;;;;;2.58;1.02;;;6.90;90.40;;;;;;5040320;28;20041;-64
2024/02/24 00:49:39;;;;;;;1.27;1.10;;;6.80;90.40;;;;;;5039523;28;20029;-65
2024/02/24 00:52:05;;;;;;;1.08;0.98;;;6.80;90.40;;;;;;5039001;28;20028;-65
2024/02/24 00:54:31;;;;;;;0.77;0.77;;;6.80;90.40;;;;;;5037889;28;20083;-66
2024/02/24 00:56:56;;;;;;;0.95;0.90;;;6.80;90.40;;;;;;5040660;28;20025;-65
2024/02/24 00:59:23;;;;;;;1.25;0.93;;;6.80;90.40;;;;;;5039678;28;20116;-65
2024/02/24 01:01:48;;;;;;;1.05;0.95;;;6.80;90.50;;;;;;5043102;28;20052;-66
2024/02/24 01:04:15;;;;;;;1.90;1.13;;;6.70;90.50;;;;;;5039851;28;20134;-65
2024/02/24 01:06:40;;;;;;;1.48;1.15;;;6.60;90.50;;;;;;5039553;28;20017;-65
2024/02/24 01:09:06;;;;;;;1.17;0.93;;;6.70;90.70;;;;;;5038857;28;20031;-65
2024/02/24 01:11:32;;;;;;;1.10;1.00;;;6.60;90.70;;;;;;5039129;28;20024;-65
2024/02/24 01:13:58;;;;;;;1.45;1.10;;;6.60;90.60;;;;;;5038706;28;20029;-66
2024/02/24 01:16:24;;;;;;;1.48;1.10;;;6.60;90.60;;;;;;5042378;28;20028;-65
2024/02/24 01:18:49;;;;;;;1.10;1.00;;;6.60;90.60;;;;;;5044632;28;20037;-66
2024/02/24 01:21:15;;;;;;;1.00;0.90;;;6.60;90.60;;;;;;5042446;28;20056;-66
2024/02/24 01:23:41;;;;;;;1.33;1.00;;;6.50;90.60;;;;;;5043676;28;20025;-65
2024/02/24 01:26:06;;;;;;;1.10;1.00;;;6.50;90.70;;;;;;5042511;28;20028;-66
2024/02/24 01:28:34;;;;;;;0.90;0.90;;;6.50;90.70;;;;;;5043054;28;20025;-64
2024/02/24 01:30:59;;;;;;;1.02;0.93;;;6.40;90.70;;;;;;5043875;28;20112;-66
2024/02/24 01:33:25;;;;;;;0.90;0.90;;;6.40;90.80;;;;;;5039170;28;20148;-66
2024/02/24 01:35:50;;;;;;;0.80;0.80;;;6.40;90.90;;;;;;5042119;28;20061;-66
2024/02/24 01:38:16;;;;;;;1.13;0.95;;;6.40;90.90;;;;;;5041838;28;20049;-66
2024/02/24 01:40:42;;;;;;;1.08;0.90;;;6.40;90.90;;;;;;5043752;28;20033;-67
2024/02/24 01:43:24;;;;;;;1.02;0.90;;;6.40;90.90;;;;;;5042549;28;20033;-67
2024/02/24 01:45:51;;;;;;;1.17;1.08;;;6.40;90.90;;;;;;5041965;28;20762;-67
2024/02/24 01:48:17;;;;;;;1.25;1.10;;;6.40;90.80;;;;;;5041820;28;20032;-64
2024/02/24 01:50:45;;;;;;;1.13;1.02;;;6.40;90.80;;;;;;5044144;28;20079;-66
2024/02/24 01:53:11;;;;;;;2.47;1.35;;;6.40;90.80;;;;;;5041507;28;20582;-66
2024/02/24 01:55:37;;;;;;;1.73;1.23;;;6.40;90.80;;;;;;5040936;28;20151;-65
2024/02/24 01:58:04;;;;;;;1.42;1.02;;;6.40;90.80;;;;;;5042419;28;20107;-65
2024/02/24 02:00:30;;;;;;;1.10;1.00;;;6.40;90.80;;;;;;5041752;28;20108;-66
2024/02/24 02:02:56;;;;;;;1.50;1.00;;;6.30;90.80;;;;;;5041362;28;20029;-65
2024/02/24 02:05:22;;;;;;;0.90;0.90;;;6.40;90.80;;;;;;5042178;28;20032;-67
2024/02/24 02:07:48;;;;;;;1.52;1.00;;;6.40;90.80;;;;;;5042202;28;20069;-67
2024/02/24 02:10:13;;;;;;;0.90;0.90;;;6.40;90.70;;;;;;5041010;28;20135;-67
2024/02/24 02:12:39;;;;;;;1.20;1.10;;;6.40;90.70;;;;;;5040178;28;20025;-66
2024/02/24 02:15:05;;;;;;;1.98;1.40;;;6.40;90.70;;;;;;5044865;28;20067;-67
2024/02/24 02:17:30;;;;;;;1.45;1.33;;;6.40;90.70;;;;;;5041762;28;20028;-66
2024/02/24 02:20:03;;;;;;;1.30;1.20;;;6.40;90.80;;;;;;5041783;28;20029;-66
2024/02/24 02:22:30;;;;;;;1.20;1.10;;;6.40;90.80;;;;;;5040233;28;20100;-66
2024/02/24 02:24:56;;;;;;;2.35;1.75;;;6.40;90.80;;;;;;5040313;28;21259;-66
2024/02/24 02:27:21;;;;;;;1.80;1.60;;;6.30;90.80;;;;;;5040413;28;20100;-66
2024/02/24 02:29:47;;;;;;;3.20;1.50;;;6.30;90.80;;;;;;5042921;28;20444;-66
2024/02/24 02:32:12;;;;;;;1.27;1.17;;;6.30;90.90;;;;;;5039508;28;20032;-66
2024/02/24 02:34:38;;;;;;;1.38;1.15;;;6.30;90.90;;;;;;5041499;28;20032;-66
2024/02/24 02:37:05;;;;;;;1.30;1.15;;;6.30;90.90;;;;;;5039939;28;20025;-66
2024/02/24 02:39:31;;;;;;;1.42;1.30;;;6.30;90.90;;;;;;5042385;28;20021;-68
2024/02/24 02:41:56;;;;;;;1.67;1.10;;;6.40;90.90;;;;;;5041634;28;20028;-67
2024/02/24 02:44:22;;;;;;;1.33;1.17;;;6.40;90.90;;;;;;5042373;28;20044;-67
2024/02/24 02:46:49;;;;;;;1.90;1.00;;;6.40;90.90;;;;;;5041492;28;20487;-67
2024/02/24 02:49:16;;;;;;;1.20;0.90;;;6.40;90.90;;;;;;5041997;28;20657;-67
2024/02/24 02:51:41;;;;;;;1.10;0.80;;;6.50;90.90;;;;;;5042890;28;20159;-67
2024/02/24 02:54:07;;;;;;;1.20;1.10;;;6.50;90.80;;;;;;5041164;28;20115;-67
2024/02/24 02:56:32;;;;;;;2.40;1.20;;;6.50;90.80;;;;;;5041391;28;20159;-65
2024/02/24 02:58:58;;;;;;;2.97;1.35;;;6.50;90.90;;;;;;5041923;28;20032;-65
2024/02/24 03:01:24;;;;;;;1.23;1.05;;;6.50;90.90;;;;;;5042409;28;20705;-66
2024/02/24 03:03:49;;;;;;;1.25;1.10;;;6.50;90.90;;;;;;5041001;28;20268;-66
2024/02/24 03:06:17;;;;;;;1.50;1.30;;;6.50;90.90;;;;;;5041361;28;20045;-67
2024/02/24 03:08:43;;;;;;;1.20;1.10;;;6.50;90.90;;;;;;5041687;28;20021;-68
2024/02/24 03:11:14;;;;;;;1.75;1.15;;;6.60;91.00;;;;;;5040628;28;20443;-66
2024/02/24 03:13:40;;;;;;;1.90;1.30;;;6.50;90.90;;;;;;5042747;28;20032;-66
2024/02/24 03:16:06;;;;;;;1.73;1.10;;;6.50;91.00;;;;;;5040335;28;20033;-67
2024/02/24 03:18:31;;;;;;;1.23;0.90;;;6.50;91.00;;;;;;5041771;28;20021;-67
2024/02/24 03:20:57;;;;;;;1.30;1.00;;;6.50;91.00;;;;;;5040424;28;20029;-66
2024/02/24 03:23:23;;;;;;;1.10;0.90;;;6.60;91.00;;;;;;5041448;28;20029;-66
2024/02/24 03:25:48;;;;;;;0.90;0.90;;;6.60;91.00;;;;;;5041136;28;20040;-67
2024/02/24 03:28:14;;;;;;;1.17;0.90;;;6.60;91.00;;;;;;5040970;28;20021;-66
2024/02/24 03:30:40;;;;;;;1.10;1.00;;;6.60;91.00;;;;;;5038165;28;20036;-67
2024/02/24 03:33:06;;;;;;;1.05;0.95;;;6.60;91.00;;;;;;5041332;28;20041;-68
2024/02/24 03:35:31;;;;;;;1.13;0.90;;;6.60;91.00;;;;;;5039596;28;20151;-67
2024/02/24 03:37:57;;;;;;;1.15;0.93;;;6.60;91.00;;;;;;5040134;28;20029;-66
2024/02/24 03:40:22;;;;;;;0.88;0.82;;;6.60;91.00;;;;;;5038980;28;20459;-66
2024/02/24 03:42:48;;;;;;;0.93;0.93;;;6.60;91.00;;;;;;5041443;28;20059;-65
2024/02/24 03:45:15;;;;;;;0.80;0.80;;;6.60;91.00;;;;;;5039830;28;20025;-66
2024/02/24 03:47:40;;;;;;;0.70;0.70;;;6.60;91.00;;;;;;5034863;28;20022;-66
2024/02/24 03:50:07;;;;;;;1.00;0.88;;;6.70;91.00;;;;;;5040337;28;20043;-65
2024/02/24 03:52:33;;;;;;;0.70;0.70;;;6.70;91.00;;;;;;5040296;28;20029;-67
2024/02/24 03:54:58;;;;;;;1.48;1.30;;;6.70;91.00;;;;;;5040116;28;20045;-65
2024/02/24 03:57:24;;;;;;;1.00;0.90;;;6.70;91.00;;;;;;5038528;28;20111;-66
2024/02/24 03:59:49;;;;;;;1.05;1.00;;;6.60;91.00;;;;;;5039713;28;20099;-65
2024/02/24 04:02:15;;;;;;;2.00;1.10;;;6.60;91.00;;;;;;5040983;28;20055;-67
2024/02/24 04:04:40;;;;;;;1.40;1.30;;;6.60;91.00;;;;;;5036789;28;20634;-66
2024/02/24 04:07:06;;;;;;;1.10;0.93;;;6.60;91.20;;;;;;5040773;28;20083;-66
2024/02/24 04:09:31;;;;;;;0.95;0.90;;;6.60;91.10;;;;;;5040331;28;20086;-66
2024/02/24 04:11:57;;;;;;;1.00;0.75;;;6.60;91.10;;;;;;5039739;28;20033;-67
2024/02/24 04:14:23;;;;;;;1.05;0.95;;;6.60;91.00;;;;;;5040134;28;20024;-66
2024/02/24 04:16:48;;;;;;;0.98;0.90;;;6.60;91.00;;;;;;5040388;28;20048;-67
2024/02/24 04:19:14;;;;;;;0.77;0.77;;;6.60;91.10;;;;;;5043495;28;20415;-67
2024/02/24 04:21:39;;;;;;;0.80;0.80;;;6.60;91.10;;;;;;5037235;28;20017;-67
2024/02/24 04:24:05;;;;;;;0.82;0.80;;;6.60;91.10;;;;;;5039233;28;20104;-66
2024/02/24 04:26:31;;;;;;;0.70;0.70;;;6.70;91.10;;;;;;5040997;28;20526;-66
2024/02/24 04:28:57;;;;;;;0.90;0.90;;;6.60;91.10;;;;;;5037102;28;20018;-66
2024/02/24 04:31:22;;;;;;;0.85;0.85;;;6.60;91.40;;;;;;5040582;28;20017;-67
2024/02/24 04:33:48;;;;;;;0.70;0.70;;;6.60;91.10;;;;;;5042070;28;20025;-67
2024/02/24 04:36:13;;;;;;;1.35;0.90;;;6.60;91.30;;;;;;5039201;28;20042;-65
2024/02/24 04:38:39;;;;;;;0.70;0.70;;;6.60;91.20;;;;;;5039000;28;20033;-64
2024/02/24 04:41:04;;;;;;;0.98;0.80;;;6.60;91.30;;;;;;5039331;28;20115;-64
2024/02/24 04:43:30;;;;;;;0.85;0.85;;;6.60;91.30;;;;;;5040209;28;20074;-64
2024/02/24 04:45:56;;;;;;;0.90;0.90;;;6.50;91.30;;;;;;5038632;28;20037;-66
2024/02/24 04:48:21;;;;;;;0.95;0.80;;;6.50;91.30;;;;;;5039006;28;20025;-65
2024/02/24 04:50:47;;;;;;;0.90;0.90;;;6.50;91.40;;;;;;5039079;28;20062;-65
2024/02/24 04:53:12;;;;;;;1.13;0.90;;;6.50;91.40;;;;;;5040100;28;20037;-66
2024/02/24 04:55:38;;;;;;;0.82;0.80;;;6.50;91.40;;;;;;5040180;28;20040;-66
2024/02/24 04:58:04;;;;;;;0.90;0.90;;;6.60;91.40;;;;;;5039302;28;20479;-66
2024/02/24 05:00:30;;;;;;;1.02;0.90;;;6.50;91.30;;;;;;5040021;28;20021;-66
2024/02/24 05:02:56;;;;;;;1.23;1.00;;;6.50;91.30;;;;;;5038716;28;20025;-66
2024/02/24 05:05:21;;;;;;;1.10;1.00;;;6.50;91.40;;;;;;5039576;28;20020;-65
2024/02/24 05:07:47;;;;;;;1.00;1.00;;;6.50;91.40;;;;;;5040854;28;20371;-66
2024/02/24 05:10:12;;;;;;;1.05;1.00;;;6.50;91.40;;;;;;5039440;28;20117;-67
2024/02/24 05:12:38;;;;;;;1.20;1.10;;;6.40;91.40;;;;;;5037462;28;20159;-67
2024/02/24 05:15:04;;;;;;;0.98;0.98;;;6.40;91.40;;;;;;5039317;28;20048;-66
2024/02/24 05:17:30;;;;;;;0.93;0.93;;;6.40;91.40;;;;;;5037517;28;20032;-66
2024/02/24 05:19:55;;;;;;;1.40;1.08;;;6.40;91.50;;;;;;5039710;28;20029;-66
2024/02/24 05:22:21;;;;;;;1.08;1.00;;;6.40;91.50;;;;;;5038255;28;20033;-67
2024/02/24 05:24:46;;;;;;;1.10;1.00;;;6.40;91.60;;;;;;5039097;28;20380;-67
2024/02/24 05:27:12;;;;;;;0.90;0.90;;;6.50;91.50;;;;;;5039103;28;20027;-67
2024/02/24 05:29:44;;;;;;;2.17;1.15;;;6.40;91.50;;;;;;5038993;28;20036;-67
2024/02/24 05:32:09;;;;;;;;;;;6.40;91.60;;;;;;5038488;28;20154;-66
2024/02/24 05:34:35;;;;;;;1.17;1.08;;;6.40;91.60;;;;;;5039229;28;19995;-67
2024/02/24 05:37:00;;;;;;;1.08;1.00;;;6.40;91.60;;;;;;5037015;28;20032;-67
2024/02/24 05:39:26;;;;;;;1.10;1.00;;;6.40;91.60;;;;;;5035675;28;20087;-67
2024/02/24 05:41:52;;;;;;;1.20;1.10;;;6.40;91.60;;;;;;5039752;28;20029;-68
2024/02/24 05:44:18;;;;;;;1.00;1.00;;;6.40;91.70;;;;;;5039170;28;20112;-67
2024/02/24 05:46:44;;;;;;;0.80;0.80;;;6.50;91.70;;;;;;5046953;28;20140;-66
2024/02/24 05:49:09;;;;;;;1.00;0.93;;;6.50;91.60;;;;;;5038462;28;20396;-67
2024/02/24 05:51:35;;;;;;;1.10;1.00;;;6.50;91.60;;;;;;5039417;28;20109;-67
2024/02/24 05:54:00;;;;;;;1.20;1.10;;;6.50;91.70;;;;;;5039429;28;20025;-67
2024/02/24 05:56:26;;;;;;;1.40;1.10;;;6.50;91.70;;;;;;5038976;28;20025;-66
2024/02/24 05:58:51;;;;;;;1.13;1.00;;;6.60;91.70;;;;;;5040764;28;20032;-66
2024/02/24 06:01:18;;;;;;;1.55;1.10;;;6.60;91.70;;;;;;5038406;28;20033;-68
2024/02/24 06:03:44;;;;;;;1.20;1.10;;;6.70;91.70;;;;;;5042589;28;20495;-66
2024/02/24 06:06:10;;;;;;;0.90;0.90;;;6.70;91.70;;;;;;5042713;28;20021;-67
2024/02/24 06:08:35;;;;;;;1.00;0.90;;;6.70;91.70;;;;;;5038703;28;20029;-68
2024/02/24 06:11:01;;;;;;;0.80;0.80;;;6.80;91.60;;;;;;5040542;28;20361;-67
2024/02/24 06:13:26;;;;;;;1.00;1.00;;;6.90;91.90;;;;;;5045688;28;20057;-67
2024/02/24 06:15:52;;;;;;;0.90;0.90;;;6.90;91.60;;;;;;5042060;28;20057;-68
2024/02/24 06:18:19;;;;;;;0.95;0.80;;;6.90;91.60;;;;;;5043851;28;20037;-67
2024/02/24 06:20:45;;;;;;;1.20;1.10;;;7.00;91.60;;;;;;5043458;28;20055;-67
2024/02/24 06:23:10;;;;;;;1.50;1.17;;;7.00;91.50;;;;;;5047593;28;20052;-67
2024/02/24 06:25:36;;;;;;;1.08;1.00;;;7.00;91.50;;;;;;5046896;28;20021;-66
2024/02/24 06:28:02;;;;;;;1.10;1.00;;;7.00;91.50;;;;;;5038691;28;20040;-66
2024/02/24 06:30:27;;;;;;;1.63;1.20;;;7.10;91.50;;;;;;5038210;28;20130;-67
2024/02/24 06:32:53;;;;;;;2.38;1.80;;;7.00;91.40;;;;;;5040678;28;20025;-67
2024/02/24 06:35:18;;;;;;;2.15;1.70;;;7.00;91.40;;;;;;5036942;28;20521;-65
2024/02/24 06:37:44;;;;;;;1.85;1.40;;;7.10;91.40;;;;;;5045635;28;20056;-66
2024/02/24 06:40:10;;;;;;;1.60;1.50;;;7.10;91.40;;;;;;5041138;28;20025;-67
2024/02/24 06:42:35;;;;;;;1.25;1.15;;;7.10;91.40;;;;;;5038722;28;20021;-67
2024/02/24 06:45:01;;;;;;;1.25;1.10;;;7.20;91.40;;;;;;5038343;28;20100;-66
2024/02/24 06:47:27;;;;;;;1.13;1.10;;;7.20;91.40;;;;;;5038818;28;20436;-66
2024/02/24 06:49:52;;;;;;;1.00;1.00;;;7.20;91.30;;;;;;5039084;28;20527;-67
2024/02/24 06:52:18;;;;;;;1.48;1.00;;;7.20;91.30;;;;;;5041172;28;20029;-66
2024/02/24 06:54:43;;;;;;;1.30;1.10;;;7.30;91.40;;;;;;5039359;28;20021;-67
2024/02/24 06:57:09;;;;;;;1.13;1.00;;;7.30;91.30;;;;;;5042312;28;20022;-66
2024/02/24 06:59:34;;;;;;;0.90;0.90;;;7.30;91.30;;;;;;5039227;28;20104;-67
2024/02/24 07:02:00;;;;;;;1.00;0.90;;;7.30;91.30;;;;;;5043000;28;20035;-66
2024/02/24 07:04:26;;;;;;;1.30;0.85;;;7.40;91.20;;;;;;5038757;28;20061;-68
2024/02/24 07:06:51;;;;;;;1.27;1.10;;;7.40;91.20;;;;;;5039518;28;20119;-65
2024/02/24 07:09:17;;;;;;;1.08;0.90;;;7.30;91.20;;;;;;5038687;28;20068;-66
2024/02/24 07:11:42;;;;;;;1.17;1.08;;;7.30;91.30;;;;;;5037792;28;20130;-65
2024/02/24 07:14:08;;;;;;;0.90;0.90;;;7.40;91.40;;;;;;5038186;28;20040;-66
2024/02/24 07:16:33;;;;;;;1.10;1.00;;;7.40;91.40;;;;;;5039928;28;20025;-66
2024/02/24 07:18:59;;;;;;;1.73;1.08;;;7.40;91.40;;;;;;5036845;28;20024;-66
2024/02/24 07:21:24;;;;;;;1.02;1.00;;;7.40;91.40;;;;;;5038668;28;20021;-66
2024/02/24 07:23:51;;;;;;;1.50;1.10;;;7.40;91.40;;;;;;5038186;28;20124;-66
2024/02/24 07:26:17;;;;;;;1.13;1.02;;;7.40;91.40;;;;;;5037325;28;20029;-66
2024/02/24 07:28:42;;;;;;;1.20;1.10;;;7.40;91.40;;;;;;5037588;28;20028;-66
2024/02/24 07:31:08;;;;;;;1.10;0.95;;;7.40;91.40;;;;;;5038203;28;20090;-66
2024/02/24 07:33:34;;;;;;;1.35;1.20;;;7.40;91.40;;;;;;5038639;28;20384;-66
2024/02/24 07:35:59;;;;;;;1.08;1.02;;;7.30;91.40;;;;;;5036557;28;20078;-67
2024/02/24 07:38:25;;;;;;;0.90;0.90;;;7.30;91.50;;;;;;5038301;28;20033;-67
2024/02/24 07:40:50;;;;;;;1.05;0.95;;;7.40;91.50;;;;;;5035556;28;20029;-67
2024/02/24 07:43:16;;;;;;;1.20;1.10;;;7.30;91.50;;;;;;5036268;28;20051;-67
2024/02/24 07:45:43;;;;;;;1.25;1.15;;;7.30;91.50;;;;;;5034657;28;20518;-67
2024/02/24 07:48:08;;;;;;;1.58;1.15;;;7.30;91.50;;;;;;5036760;28;20033;-67
2024/02/24 07:50:34;;;;;;;1.52;1.38;;;7.20;91.60;;;;;;5036800;28;20095;-65
2024/02/24 07:52:59;;;;;;;1.70;1.38;;;7.30;91.60;;;;;;5038260;28;20114;-66
2024/02/24 07:55:25;;;;;;;1.70;1.30;;;7.30;91.60;;;;;;5037720;28;20094;-66
2024/02/24 07:57:50;;;;;;;4.40;1.60;;;7.20;91.60;;;;;;5041992;28;20017;-66
2024/02/24 08:00:16;;;;;;;1.77;1.20;;;7.30;91.60;;;;;;5041760;28;20021;-67
2024/02/24 08:02:42;;;;;;;1.52;1.27;;;7.30;91.60;;;;;;5047173;28;20433;-67
2024/02/24 08:05:08;;;;;;;1.92;1.20;;;7.40;91.60;;;;;;5046770;28;20017;-66
2024/02/24 08:07:33;;;;;;;1.20;0.90;;;7.40;91.60;;;;;;5044491;28;20048;-66
2024/02/24 08:09:59;;;;;;;1.48;1.20;;;7.40;91.60;;;;;;5048190;28;20041;-66
2024/02/24 08:12:24;;;;;;;1.20;1.10;;;7.40;91.50;;;;;;5045284;28;20041;-66
2024/02/24 08:14:50;;;;;;;2.38;1.20;;;7.40;91.60;;;;;;5040327;28;20116;-66
2024/02/24 08:17:16;;;;;;;1.10;1.00;;;7.50;91.60;;;;;;5037782;28;20090;-66
2024/02/24 08:19:42;;;;;;;2.65;1.00;;;7.50;91.60;;;;;;5036034;28;20025;-67
2024/02/24 08:22:08;;;;;;;1.70;1.50;;;7.60;91.60;;;;;;5037614;28;20539;-66
2024/02/24 08:24:33;;;;;;;1.20;1.10;;;7.70;91.50;;;;;;5042277;28;20100;-67
2024/02/24 08:26:59;;;;;;;3.65;1.80;;;7.70;91.40;;;;;;5038621;28;20028;-67
2024/02/24 08:29:26;;;;;;;2.15;1.90;;;7.70;91.40;;;;;;5045355;28;20499;-66
2024/02/24 08:31:52;;;;;;;1.60;1.50;;;7.70;91.40;;;;;;5045433;28;20032;-65
2024/02/24 08:34:18;;;;;;;2.28;1.70;;;7.70;91.40;;;;;;5046902;28;20029;-67
2024/02/24 08:36:44;;;;;;;1.70;1.40;;;7.70;91.30;;;;;;5047572;28;20021;-66
2024/02/24 08:39:10;;;;;;;1.60;1.50;;;7.80;91.30;;;;;;5043488;28;20029;-66
2024/02/24 08:41:36;;;;;;;2.47;1.70;;;7.80;91.30;;;;;;5047135;28;20080;-66
2024/02/24 08:44:03;;;;;;;2.20;1.80;;;7.80;91.20;;;;;;5047547;28;20035;-65
2024/02/24 08:46:29;;;;;;;1.65;1.50;;;7.70;91.20;;;;;;5048138;28;20048;-66
2024/02/24 08:48:55;;;;;;;3.08;2.30;;;7.80;91.50;;;;;;5047273;28;20033;-66
2024/02/24 08:51:21;;;;;;;2.10;1.80;;;7.70;91.10;;;;;;5046287;28;20035;-66
2024/02/24 08:53:47;;;;;;;2.45;2.00;;;7.70;91.20;;;;;;5043830;28;20109;-66
2024/02/24 08:56:17;;;;;;;2.33;1.80;;;7.70;91.10;;;;;;5047533;28;20024;-65
2024/02/24 08:58:43;;;;;;;2.00;1.67;;;7.60;91.10;;;;;;5045291;28;20049;-66
2024/02/24 09:01:08;;;;;;;2.45;2.10;;;7.70;91.20;;;;;;5047450;28;20107;-66
2024/02/24 09:03:34;;;;;;;2.00;1.80;;;7.60;91.10;;;;;;5046518;28;20025;-66
2024/02/24 09:06:00;;;;;;;2.90;2.00;;;7.60;91.10;;;;;;5047635;28;20032;-66
2024/02/24 09:08:26;;;;;;;2.17;1.70;;;7.60;91.10;;;;;;5040944;28;20037;-66
2024/02/24 09:10:54;;;;;;;3.28;2.33;;;7.60;91.00;;;;;;5044446;28;20043;-66
2024/02/24 09:13:20;;;;;;;3.92;2.30;;;7.60;91.00;;;;;;5047627;28;20033;-66
2024/02/24 09:15:45;;;;;;;3.42;2.05;;;7.60;91.00;;;;;;5043973;28;20040;-66
2024/02/24 09:18:11;;;;;;;3.50;2.00;;;7.60;91.00;;;;;;5045632;28;20399;-67
2024/02/24 09:20:37;;;;;;;3.38;2.10;;;7.70;91.00;;;;;;5044558;28;20070;-67
2024/02/24 09:23:03;;;;;;;4.05;2.30;;;7.60;90.80;;;;;;5046027;28;20065;-67
2024/02/24 09:25:29;;;;;;;5.47;2.53;;;7.60;90.80;;;;;;5045579;28;20032;-67
2024/02/24 09:27:54;;;;;;;3.60;1.95;;;7.60;90.80;;;;;;5043621;28;20037;-67
2024/02/24 09:30:20;;;;;;;2.40;1.98;;;7.60;90.80;;;;;;5039048;28;20060;-66
2024/02/24 09:32:47;;;;;;;5.10;2.40;;;7.60;90.80;;;;;;5047588;28;20132;-67
2024/02/24 09:35:13;;;;;;;2.92;2.20;;;7.60;90.80;;;;;;5046897;28;20460;-66
2024/02/24 09:37:38;;;;;;;3.40;2.17;;;7.70;90.80;;;;;;5050105;28;20449;-66
2024/02/24 09:40:07;;;;;;;2.65;2.15;;;7.60;90.70;;;;;;5050101;28;20709;-67
2024/02/24 09:42:36;;;;;;;2.20;1.77;;;7.60;90.70;;;;;;5050545;28;20765;-68
2024/02/24 09:45:05;;;;;;;2.72;1.90;;;7.70;90.70;;;;;;5044063;28;20021;-67
2024/02/24 09:47:31;;;;;;;2.65;1.55;;;7.70;90.70;;;;;;5048140;28;20665;-67
2024/02/24 09:49:59;;;;;;;1.50;1.40;;;7.50;90.50;;;;;;5047958;28;20111;-66
2024/02/24 09:52:25;;;;;;;1.30;1.20;;;7.30;90.60;;;;;;5046074;28;20039;-66
2024/02/24 09:54:51;;;;;;;2.15;1.67;;;7.20;90.70;;;;;;5044022;28;20029;-67
2024/02/24 09:57:18;;;;;;;1.80;1.60;;;7.10;90.80;;;;;;5042865;28;20030;-66
2024/02/24 09:59:45;;;;;;;1.30;1.20;;;7.00;91.00;;;;;;5046920;28;20029;-67
2024/02/24 10:02:14;;;;;;;1.35;1.25;;;7.10;91.10;;;;;;5042908;28;20578;-67
2024/02/24 10:04:40;;;;;;;1.60;1.50;;;7.10;91.10;;;;;;5045722;28;20021;-67
2024/02/24 10:07:06;;;;;;;1.65;1.55;;;7.00;91.10;;;;;;5048415;28;20067;-67
2024/02/24 10:09:33;;;;;;;2.70;1.50;;;7.00;91.20;;;;;;5047380;28;20044;-66
2024/02/24 10:12:00;;;;;;;3.25;1.85;;;7.10;91.30;;;;;;5044919;28;20033;-67
2024/02/24 10:14:28;;;;;;;3.20;2.08;;;7.10;91.30;;;;;;5047168;28;20199;-67
2024/02/24 10:16:56;;;;;;;3.08;2.10;;;7.00;91.30;;;;;;5047118;28;20029;-67
2024/02/24 10:19:21;;;;;;;2.38;1.90;;;7.00;91.40;;;;;;5043137;28;20017;-67
2024/02/24 10:21:47;;;;;;;2.72;1.90;;;7.00;91.40;;;;;;5047586;28;20029;-66
2024/02/24 10:24:12;;;;;;;2.95;2.00;;;7.00;91.50;;;;;;5047609;28;20100;-67
2024/02/24 10:26:38;;;;;;;2.30;2.03;;;6.90;91.50;;;;;;5046578;28;20021;-67
2024/02/24 10:29:07;;;;;;;3.13;1.95;;;6.90;91.60;;;;;;5046847;28;20029;-67
2024/02/24 10:31:37;;;;;;;2.60;2.03;;;6.90;91.60;;;;;;5043442;28;20797;-69
2024/02/24 10:34:04;;;;;;;4.93;2.50;;;6.90;91.70;;;;;;5047220;28;20039;-67
2024/02/24 10:36:33;;;;;;;4.35;2.70;;;6.80;91.70;;;;;;5047394;28;20033;-67
2024/02/24 10:39:01;;;;;;;3.67;2.65;;;6.80;91.80;;;;;;5048270;28;20789;-66
2024/02/24 10:41:27;;;;;;;3.05;2.17;;;6.80;91.90;;;;;;5048295;28;20040;-68
2024/02/24 10:43:53;;;;;;;3.50;2.00;;;6.80;91.90;;;;;;5047143;28;20501;-66
2024/02/24 10:46:19;;;;;;;3.47;2.45;;;6.90;92.00;;;;;;5046098;28;20024;-66
2024/02/24 10:48:44;;;;;;;4.90;3.25;;;6.90;92.00;;;;;;5045143;28;20466;-67
2024/02/24 10:51:13;;;;;;;4.30;2.70;;;6.90;92.00;;;;;;5045743;28;20138;-67
2024/02/24 10:53:46;;;;;;;4.68;2.80;;;6.90;92.00;;;;;;5045096;28;20101;-67
2024/02/24 10:56:44;;;;;;;2.53;2.05;;;7.00;91.90;;;;;;5044097;28;20024;-66
2024/02/24 10:59:10;;;;;;;4.13;2.53;;;7.00;91.90;;;;;;5015444;28;20122;-66
2024/02/24 11:02:06;;;;;;;4.00;2.60;;;7.20;91.90;;;;;;5044909;28;20029;-67
2024/02/24 11:04:36;;;;;;;5.40;3.45;;;7.20;91.80;;;;;;5044318;28;20017;-66
2024/02/24 11:07:01;;;;;;;5.88;3.60;;;7.30;91.80;;;;;;5047154;28;20086;-67
2024/02/24 11:09:37;;;;;;;5.20;2.80;;;7.20;91.80;;;;;;5045930;28;20033;-66
2024/02/24 11:12:12;;;;;;;5.05;2.80;;;7.20;91.80;;;;;;5044976;28;20024;-67
2024/02/24 11:14:43;;;;;;;5.90;3.13;;;7.10;91.80;;;;;;5045658;28;20407;-66
2024/02/24 11:17:12;;;;;;;4.22;2.72;;;7.20;91.80;;;;;;5046217;28;20192;-67
2024/02/24 11:19:48;;;;;;;4.18;2.85;;;7.20;91.90;;;;;;5046384;28;20095;-66
2024/02/24 11:22:20;;;;;;;4.63;2.65;;;7.20;91.90;;;;;;5045694;28;20025;-67
2024/02/24 11:25:02;;;;;;;4.22;2.72;;;7.20;91.90;;;;;;5044506;28;20035;-67
2024/02/24 11:27:30;;;;;;;4.65;3.00;;;7.30;91.90;;;;;;5047748;28;21745;-66
2024/02/24 11:29:56;;;;;;;3.53;2.45;;;7.40;91.80;;;;;;5044238;28;20440;-67
2024/02/24 11:32:21;;;;;;;4.55;2.80;;;7.50;91.80;;;;;;5043008;28;21712;-67
2024/02/24 11:34:48;;;;;;;4.38;2.63;;;7.60;91.70;;;;;;5043710;28;20108;-67
2024/02/24 11:37:16;;;;;;;4.35;2.78;;;7.60;91.60;;;;;;5044920;28;20144;-68
2024/02/24 11:39:44;;;;;;;4.50;2.60;;;7.60;91.50;;;;;;5047173;28;20112;-68
2024/02/24 11:42:11;;;;;;;2.47;2.00;;;7.70;91.40;;;;;;5044288;28;20029;-68
2024/02/24 11:44:42;;;;;;;3.55;2.50;;;7.80;91.50;;;;;;5045693;28;20032;-68
2024/02/24 11:47:07;;;;;;;2.42;2.22;;;7.80;91.30;;;;;;5045156;28;20031;-68
2024/02/24 11:49:33;;;;;;;2.70;1.80;;;7.90;91.30;;;;;;5043600;28;20025;-68
2024/02/24 11:51:59;;;;;;;3.13;1.85;;;8.00;91.30;;;;;;5044053;28;20030;-68
2024/02/24 11:54:24;;;;;;;3.17;2.00;;;8.10;91.20;;;;;;5040895;28;20029;-68
2024/02/24 11:56:50;;;;;;;2.83;2.05;;;8.10;90.90;;;;;;5041468;28;20025;-68
2024/02/24 11:59:16;;;;;;;3.83;2.65;;;8.10;90.70;;;;;;5043141;28;20029;-66
2024/02/24 12:01:41;;;;;;;3.85;2.10;;;8.10;90.40;;;;;;5044089;28;20064;-68
2024/02/24 12:04:07;;;;;;;2.08;1.60;;;8.20;90.20;;;;;;5042235;28;20025;-68
2024/02/24 12:06:32;;;;;;;2.05;1.40;;;8.20;90.20;;;;;;5041605;28;20021;-67
2024/02/24 12:08:59;;;;;;;1.92;1.50;;;8.20;90.10;;;;;;5044000;28;20025;-68
2024/02/24 12:11:26;;;;;;;1.98;1.70;;;8.20;90.00;;;;;;5044435;28;20052;-68
2024/02/24 12:13:52;;;;;;;3.70;1.95;;;8.20;89.90;;;;;;5040372;28;20043;-68
2024/02/24 12:16:18;;;;;;;2.22;1.45;;;8.20;89.60;;;;;;5044275;28;20032;-68
2024/02/24 12:18:45;;;;;;;2.33;1.60;;;8.20;89.50;;;;;;5045545;28;20025;-67
2024/02/24 12:21:11;;;;;;;2.85;1.60;;;8.20;89.20;;;;;;5045538;28;20025;-68
2024/02/24 12:23:37;;;;;;;2.38;1.85;;;8.20;88.90;;;;;;5045660;28;20553;-67
2024/02/24 12:26:11;;;;;;;2.78;1.70;;;8.20;88.50;;;;;;5046678;28;20016;-68
2024/02/24 12:28:39;;;;;;;1.50;1.40;;;8.20;87.50;;;;;;5045946;28;20040;-67
2024/02/24 12:31:08;;;;;;;2.40;1.50;;;8.30;87.50;;;;;;5045463;28;20016;-68
2024/02/24 12:33:39;;;;;;;2.25;1.23;;;8.30;86.90;;;;;;5038031;28;20028;-68
2024/02/24 12:36:06;;;;;;;1.90;1.20;;;8.30;86.50;;;;;;5042942;28;20033;-68
2024/02/24 12:38:31;;;;;;;1.75;1.30;;;8.30;86.60;;;;;;5044414;28;20021;-68
2024/02/24 12:40:57;;;;;;;1.35;1.13;;;8.20;86.00;;;;;;5045157;28;20094;-68
2024/02/24 12:43:23;;;;;;;2.60;1.08;;;8.20;86.10;;;;;;5047064;28;20044;-68
2024/02/24 12:45:51;;;;;;;1.52;1.30;;;8.20;86.40;;;;;;5042193;28;20098;-67
2024/02/24 12:48:17;;;;;;;1.17;1.08;;;8.20;87.20;;;;;;5042632;28;20028;-68
2024/02/24 12:50:45;;;;;;;4.65;1.20;;;8.20;86.70;;;;;;5044876;28;20534;-68
2024/02/24 12:53:11;;;;;;;2.75;1.73;;;8.20;86.70;;;;;;5046019;28;20021;-68